Contact Us:
Email: info@sawbill.com
Phone: (218)663-7150
Fax: (218)663-7980
Mail: 4620 Sawbill Trail
Box 2129
Tofte, MN 55615


Powered by
Movable Type 3.15
 
Sawbill Weather History Archives: November 2007
Current Sawbill Weather History | « October 2007 | December 2007 »


Date

High
Temperature

Low
Temperature

Barometric
Pressure

Relative
Humidity 7AM

9 AM
Temperature

Moisture

Snow

11/30/07 10 -12 30.09 85% 10 Trace Trace
11/29/07 8 -11 29.83 89% -9 Trace Trace
11/28/06 21 3 29.83 79% 7 .1" 1"
11/27/07 19 2 29.80 88% 19 .29" 4"
11/26/07 32 3 30.03 75% 3 0 3"
11/25/07 34 19 29.91 63% 20 Trace Trace
11/24/07 29 18 29.59 78% 22 0
11/23/07 24 15 29.92 77% 18 Trace Trace
11/22/07 21 5 30.00 78% 15 Trace Trace
11/21/07 24 9 30.24 62% 11 0
11/20/07 34 24 30.21 64% 24 Trace Trace
11/19/07 38 31 29.97 85% 33 0
11/18/07 35 28 29.98 82% 30 0
11/17/07 31 21 30.02 68% 26 Trace Trace
11/16/07 30 20 30.06 71% 21 Trace Trace
11/15/07 31 19 29.88 64% 27 0
11/14/07 37 28 29.60 68% 29 Trace Trace
11/13/07 48 35 29.32 75% 35 .05"
11/12/07 43 34 29.53 50% 43 0
11/11/07 41 33 29.94 80% 37 0
11/10/07 35 32 29.71 96% 33 .22" Trace
11/9/07 34 30 30.00 87% 33 Trace Trace
11/8/07 33 28 29.97 89% 30 Trace Trace
11/7/07 32 26 29.85 89% 30 .1" 1"
11/6/07 30 24 30.03 66% 26 Trace Trace
11/5/07 36 25 30.06 70% 25 Trace Trace
11/4/07 41 34 29.85 70% 36 Trace Trace
11/3/07 43 28 29.65 72% 30 0
11/2/07 46 29 29.97 86% 34 0
11/1/07 44 30 29.91 92% 30 0
 


Home I Trip Planning I Rentals and Outfitting I Reservations I Campgrounds I Sawbill Store I Sawbill News I Contact

© 1997 - 2017, Sawbill Canoe Outfitters, Inc. I Privacy Policy